createdAt,value
2022-12-01T00:01:18.798Z,58.80
2022-12-01T00:03:45.688Z,54.30
2022-12-01T00:06:17.958Z,55.73
2022-12-01T00:09:06.814Z,63.27
2022-12-01T00:11:35.573Z,58.73
2022-12-01T00:14:02.840Z,57.57
2022-12-01T00:16:30.476Z,61.87
2022-12-01T00:18:57.583Z,55.33
2022-12-01T00:21:25.878Z,53.53
2022-12-01T00:23:55.109Z,57.53
2022-12-01T00:26:22.678Z,56.37
2022-12-01T00:28:54.615Z,59.03
2022-12-01T00:31:21.929Z,59.93
2022-12-01T00:33:49.757Z,61.97
2022-12-01T00:36:17.023Z,56.37
2022-12-01T00:38:43.781Z,54.93
2022-12-01T00:41:10.605Z,47.40
2022-12-01T00:43:37.431Z,62.87
2022-12-01T00:46:04.474Z,63.30
2022-12-01T00:48:31.427Z,56.37
2022-12-01T00:50:58.243Z,55.50
2022-12-01T00:53:25.093Z,60.73
2022-12-01T00:55:53.942Z,57.83
2022-12-01T00:58:21.331Z,60.53
2022-12-01T01:00:48.768Z,54.23
2022-12-01T01:03:15.862Z,67.77
2022-12-01T01:05:43.695Z,54.10
2022-12-01T01:08:12.627Z,53.20
2022-12-01T01:10:40.490Z,52.93
2022-12-01T01:13:07.561Z,53.97
2022-12-01T01:15:34.744Z,57.97
2022-12-01T01:18:01.799Z,66.43
2022-12-01T01:20:28.676Z,53.27
2022-12-01T01:22:55.443Z,58.83
2022-12-01T01:25:22.776Z,55.90
2022-12-01T01:27:49.965Z,51.27
2022-12-01T01:30:17.665Z,55.63
2022-12-01T01:32:44.381Z,56.87
2022-12-01T01:35:11.215Z,56.83
2022-12-01T01:37:37.922Z,63.10
2022-12-01T01:40:05.507Z,55.33
2022-12-01T01:42:32.348Z,55.93
2022-12-01T01:44:59.439Z,54.07
2022-12-01T01:47:38.135Z,50.57
2022-12-01T01:50:09.588Z,58.10
2022-12-01T01:52:43.035Z,52.07
2022-12-01T01:55:10.025Z,54.57
2022-12-01T01:57:37.974Z,56.43
2022-12-01T02:00:17.568Z,52.37
2022-12-01T02:02:46.301Z,58.07
2022-12-01T02:05:21.010Z,50.90
2022-12-01T02:07:48.874Z,67.53
2022-12-01T02:10:22.483Z,62.37
2022-12-01T02:12:52.393Z,54.77
2022-12-01T02:15:44.837Z,57.90
2022-12-01T02:18:17.474Z,55.50
2022-12-01T02:21:23.306Z,51.60
2022-12-01T02:24:19.638Z,57.80
2022-12-01T02:27:08.772Z,64.73
2022-12-01T02:29:55.847Z,58.57
2022-12-01T02:32:56.439Z,59.00
2022-12-01T02:35:41.237Z,64.10
2022-12-01T02:38:10.993Z,60.27
2022-12-01T02:40:43.143Z,55.43
2022-12-01T02:43:29.978Z,55.73
2022-12-01T02:46:15.533Z,63.67
2022-12-01T02:48:46.765Z,60.80
2022-12-01T02:51:29.753Z,59.00
2022-12-01T02:54:01.648Z,56.70
2022-12-01T02:56:28.675Z,61.03
2022-12-01T02:58:55.518Z,62.20
2022-12-01T03:01:39.057Z,53.03
2022-12-01T03:04:36.245Z,66.17
2022-12-01T03:07:27.095Z,73.93
2022-12-01T03:10:17.367Z,57.47
2022-12-01T03:13:20.030Z,55.73
2022-12-01T03:16:16.497Z,55.90
2022-12-01T03:19:03.171Z,56.40
2022-12-01T03:21:41.467Z,57.20
2022-12-01T03:24:18.154Z,55.70
2022-12-01T03:26:48.627Z,59.27
2022-12-01T03:29:19.674Z,63.57
2022-12-01T03:31:54.415Z,70.67
2022-12-01T03:34:34.834Z,54.20
2022-12-01T03:37:18.222Z,61.40
2022-12-01T03:39:47.948Z,62.60
2022-12-01T03:42:23.601Z,59.93
2022-12-01T03:44:54.583Z,56.43
2022-12-01T03:47:25.082Z,68.17
2022-12-01T03:49:53.702Z,57.97
2022-12-01T03:52:46.430Z,52.03
2022-12-01T03:55:25.125Z,55.93
2022-12-01T04:00:33.095Z,48.13
2022-12-01T04:03:04.849Z,57.97
2022-12-01T04:05:34.069Z,52.93
2022-12-01T04:08:01.022Z,56.07
2022-12-01T04:10:27.832Z,55.93
2022-12-01T04:12:59.256Z,58.13
2022-12-01T04:15:27.102Z,56.00
2022-12-01T04:17:53.816Z,53.93
2022-12-01T04:20:20.679Z,63.10
2022-12-01T04:22:47.929Z,57.60
2022-12-01T04:25:14.674Z,53.07
2022-12-01T04:27:41.425Z,63.00
2022-12-01T04:30:09.298Z,54.77
2022-12-01T04:32:40.081Z,58.20
2022-12-01T04:35:08.357Z,51.93
2022-12-01T04:37:35.116Z,61.33
2022-12-01T04:40:02.047Z,48.83
2022-12-01T04:42:28.778Z,60.87
2022-12-01T04:44:55.518Z,57.47
2022-12-01T04:47:22.330Z,57.43
2022-12-01T04:49:49.421Z,58.63
2022-12-01T04:52:16.710Z,54.43
2022-12-01T04:54:43.386Z,53.40
2022-12-01T04:57:10.105Z,55.63
2022-12-01T04:59:36.878Z,59.30
2022-12-01T05:02:04.280Z,61.10
2022-12-01T05:04:32.491Z,61.67
2022-12-01T05:06:59.239Z,67.60
2022-12-01T05:09:26.052Z,55.67
2022-12-01T05:11:52.911Z,54.87
2022-12-01T05:14:19.721Z,57.17
2022-12-01T05:16:46.586Z,52.13
2022-12-01T05:19:32.053Z,58.27
2022-12-01T05:21:58.791Z,60.70
2022-12-01T05:24:26.243Z,66.73
2022-12-01T05:26:52.942Z,55.23
2022-12-01T05:29:19.732Z,56.17
2022-12-01T05:31:47.169Z,61.10
2022-12-01T05:34:14.468Z,50.30
2022-12-01T05:36:41.880Z,55.23
2022-12-01T05:39:08.718Z,56.07
2022-12-01T05:41:35.396Z,58.67
2022-12-01T05:44:02.295Z,59.27
2022-12-01T05:46:29.018Z,59.97
2022-12-01T05:48:55.709Z,53.97
2022-12-01T05:51:22.460Z,64.00
2022-12-01T05:53:49.643Z,52.40
2022-12-01T05:56:16.450Z,57.40
2022-12-01T05:58:43.169Z,57.67
2022-12-01T06:01:09.931Z,56.43
2022-12-01T06:03:36.622Z,66.27
2022-12-01T06:06:03.572Z,60.20
2022-12-01T06:08:30.322Z,51.57
2022-12-01T06:10:57.010Z,64.40
2022-12-01T06:13:23.866Z,66.10
2022-12-01T06:16:02.477Z,64.00
2022-12-01T06:18:32.797Z,59.77
2022-12-01T06:20:59.784Z,56.50
2022-12-01T06:23:30.306Z,56.37
2022-12-01T06:25:58.017Z,54.47
2022-12-01T06:28:24.740Z,63.93
2022-12-01T06:30:51.589Z,57.13
2022-12-01T06:33:18.290Z,65.03
2022-12-01T06:35:45.098Z,55.17
2022-12-01T06:38:11.843Z,58.87
2022-12-01T06:40:38.547Z,55.33
2022-12-01T06:43:06.366Z,59.37
2022-12-01T06:45:33.240Z,60.00
2022-12-01T06:48:00.020Z,61.83
2022-12-01T06:50:26.755Z,53.43
2022-12-01T06:52:53.768Z,60.77
2022-12-01T06:55:20.487Z,60.47
2022-12-01T06:57:47.387Z,67.57
2022-12-01T07:00:14.912Z,68.00
2022-12-01T07:02:42.006Z,68.80
2022-12-01T07:05:09.184Z,66.93
2022-12-01T07:07:37.829Z,67.33
2022-12-01T07:10:05.326Z,65.63
2022-12-01T07:12:32.306Z,64.50
2022-12-01T07:14:59.068Z,71.37
2022-12-01T07:17:25.935Z,67.87
2022-12-01T07:19:52.622Z,63.57
2022-12-01T07:22:19.509Z,66.57
2022-12-01T07:24:46.232Z,62.67
2022-12-01T07:27:12.927Z,62.73
2022-12-01T07:29:39.677Z,71.60
2022-12-01T07:32:06.573Z,57.63
2022-12-01T07:34:33.363Z,59.63
2022-12-01T07:37:00.121Z,55.43
2022-12-01T07:39:26.898Z,65.67
2022-12-01T07:41:53.615Z,65.43
2022-12-01T07:44:20.326Z,98.57
2022-12-01T07:46:47.172Z,72.60
2022-12-01T07:49:15.549Z,73.17
2022-12-01T07:51:45.327Z,70.27
2022-12-01T07:54:14.298Z,77.10
2022-12-01T07:56:41.385Z,76.93
2022-12-01T07:59:08.258Z,77.70
2022-12-01T08:01:35.018Z,83.57
2022-12-01T08:04:01.792Z,73.43
2022-12-01T08:06:28.604Z,76.93
2022-12-01T08:08:55.865Z,84.30
2022-12-01T08:11:25.213Z,81.17
2022-12-01T08:13:53.074Z,88.77
2022-12-01T08:16:22.377Z,81.73
2022-12-01T08:18:49.477Z,81.53
2022-12-01T08:21:18.287Z,89.93
2022-12-01T08:23:45.528Z,79.00
2022-12-01T08:26:17.887Z,80.80
2022-12-01T08:28:45.043Z,87.23
2022-12-01T08:31:13.330Z,83.17
2022-12-01T08:33:40.174Z,90.80
2022-12-01T08:36:07.762Z,89.20
2022-12-01T08:38:34.895Z,100.40
2022-12-01T08:41:07.331Z,81.67
2022-12-01T08:43:56.431Z,81.87
2022-12-01T08:46:21.281Z,87.37
2022-12-01T08:48:48.048Z,78.00
2022-12-01T08:51:18.241Z,86.30
2022-12-01T08:53:48.029Z,90.47
2022-12-01T08:56:18.579Z,84.00
2022-12-01T08:58:45.606Z,84.37
2022-12-01T09:01:15.123Z,91.00
2022-12-01T09:03:43.110Z,94.03
2022-12-01T09:06:17.692Z,97.00
2022-12-01T09:08:44.448Z,91.90
2022-12-01T09:11:14.150Z,85.23
2022-12-01T09:13:42.480Z,88.10
2022-12-01T09:16:12.727Z,82.23
2022-12-01T09:18:40.767Z,91.97
2022-12-01T09:21:19.893Z,89.47
2022-12-01T09:23:47.545Z,89.80
2022-12-01T09:26:18.410Z,89.67
2022-12-01T09:28:50.121Z,94.50
2022-12-01T09:31:18.349Z,84.23
2022-12-01T09:33:45.440Z,91.23
2022-12-01T09:36:12.907Z,89.20
2022-12-01T09:38:39.716Z,78.10
2022-12-01T09:41:17.879Z,78.13
2022-12-01T09:43:54.494Z,78.23
2022-12-01T09:46:26.054Z,85.57
2022-12-01T09:48:57.215Z,90.83
2022-12-01T09:51:28.055Z,82.33
2022-12-01T09:53:58.286Z,84.70
2022-12-01T09:56:29.048Z,77.03
2022-12-01T09:58:59.476Z,77.00
2022-12-01T10:01:48.167Z,81.70
2022-12-01T10:04:25.093Z,84.93
2022-12-01T10:07:03.348Z,78.63
2022-12-01T10:09:43.115Z,85.53
2022-12-01T10:12:27.672Z,77.67
2022-12-01T10:15:02.257Z,76.20
2022-12-01T10:17:45.412Z,77.53
2022-12-01T10:20:39.328Z,87.53
2022-12-01T10:23:14.933Z,82.03
2022-12-01T10:25:59.320Z,86.63
2022-12-01T10:28:47.209Z,89.67
2022-12-01T10:31:36.467Z,85.07
2022-12-01T10:34:11.002Z,77.67
2022-12-01T10:36:37.822Z,81.93
2022-12-01T10:39:07.133Z,85.27
2022-12-01T10:41:37.703Z,76.27
2022-12-01T10:44:07.091Z,82.27
2022-12-01T10:46:44.581Z,77.43
2022-12-01T10:49:13.878Z,69.50
2022-12-01T10:51:53.085Z,75.97
2022-12-01T10:54:21.536Z,69.57
2022-12-01T10:56:50.962Z,68.10
2022-12-01T10:59:49.627Z,80.17
2022-12-01T11:02:21.188Z,67.10
2022-12-01T11:05:07.194Z,73.83
2022-12-01T11:07:43.180Z,73.70
2022-12-01T11:10:29.929Z,75.27
2022-12-01T11:13:07.222Z,68.70
2022-12-01T11:15:39.810Z,70.37
2022-12-01T11:18:22.346Z,77.00
2022-12-01T11:21:04.126Z,64.20
2022-12-01T11:23:30.904Z,74.43
2022-12-01T11:26:10.250Z,64.63
2022-12-01T11:28:43.035Z,61.83
2022-12-01T11:31:11.254Z,72.90
2022-12-01T11:33:50.028Z,68.47
2022-12-01T11:36:21.331Z,70.77
2022-12-01T11:38:48.505Z,72.17
2022-12-01T11:41:36.474Z,69.30
2022-12-01T11:44:12.770Z,63.57
2022-12-01T11:46:50.438Z,71.13
2022-12-01T11:49:29.610Z,58.07
2022-12-01T11:51:56.395Z,72.37
2022-12-01T11:54:25.999Z,67.60
2022-12-01T11:57:25.197Z,61.83
2022-12-01T11:59:40.981Z,58.90
2022-12-01T12:02:31.021Z,58.17
2022-12-01T12:05:06.878Z,69.67
2022-12-01T12:07:39.435Z,63.17
2022-12-01T12:10:24.439Z,57.93
2022-12-01T12:12:58.505Z,55.67
2022-12-01T12:15:45.555Z,51.60
2022-12-01T12:18:36.581Z,62.70
2022-12-01T12:21:27.086Z,55.00
2022-12-01T12:24:13.266Z,56.60
2022-12-01T12:27:07.713Z,52.70
2022-12-01T12:29:53.148Z,51.47
2022-12-01T12:32:53.642Z,50.40
2022-12-01T12:35:33.213Z,53.07
2022-12-01T12:38:35.163Z,55.60
2022-12-01T12:41:21.421Z,56.60
2022-12-01T12:44:25.894Z,54.23
2022-12-01T12:47:00.207Z,54.97
2022-12-01T12:49:46.483Z,52.10
2022-12-01T12:52:19.404Z,59.23
2022-12-01T12:54:46.195Z,57.23
2022-12-01T12:57:35.435Z,60.40
2022-12-01T13:00:13.569Z,56.23
2022-12-01T13:02:53.184Z,55.90
2022-12-01T13:05:43.536Z,59.03
2022-12-01T13:08:21.440Z,58.40
2022-12-01T13:11:10.186Z,48.30
2022-12-01T13:13:42.105Z,59.23
2022-12-01T13:16:27.617Z,51.80
2022-12-01T13:19:03.178Z,51.93
2022-12-01T13:21:37.289Z,52.77
2022-12-01T13:24:06.136Z,47.13
2022-12-01T13:26:36.170Z,45.40
2022-12-01T13:29:06.201Z,45.93
2022-12-01T13:31:46.568Z,51.57
2022-12-01T13:34:33.452Z,50.43
2022-12-01T13:37:00.435Z,54.63
2022-12-01T13:39:36.146Z,58.10
2022-12-01T13:42:19.184Z,55.07
2022-12-01T13:45:02.657Z,50.33
2022-12-01T13:47:50.015Z,50.33
2022-12-01T13:50:46.175Z,49.27
2022-12-01T13:53:17.736Z,49.90
2022-12-01T13:56:16.543Z,50.50
2022-12-01T13:58:52.275Z,45.97
2022-12-01T14:01:22.771Z,52.30
2022-12-01T14:03:57.058Z,45.67
2022-12-01T14:06:35.904Z,44.47
2022-12-01T14:09:16.116Z,49.30
2022-12-01T14:12:02.041Z,48.73
2022-12-01T14:14:36.403Z,48.67
2022-12-01T14:17:04.017Z,50.07
2022-12-01T14:19:43.991Z,46.73
2022-12-01T14:22:32.997Z,47.57
2022-12-01T14:25:00.248Z,53.20
2022-12-01T14:27:35.927Z,47.90
2022-12-01T14:30:46.761Z,51.73
2022-12-01T14:33:51.284Z,48.80
2022-12-01T14:36:23.906Z,47.93
2022-12-01T14:39:02.445Z,38.63
2022-12-01T14:41:49.585Z,53.77
2022-12-01T14:44:23.923Z,48.70
2022-12-01T14:47:09.695Z,45.30
2022-12-01T14:50:06.084Z,51.70
2022-12-01T14:52:38.564Z,49.67
2022-12-01T14:55:13.863Z,51.70
2022-12-01T14:57:45.487Z,49.07
2022-12-01T15:00:18.443Z,50.40
2022-12-01T15:02:57.854Z,50.17
2022-12-01T15:05:27.853Z,48.57
2022-12-01T15:08:18.627Z,45.77
2022-12-01T15:10:52.441Z,51.10
2022-12-01T15:13:24.484Z,55.93
2022-12-01T15:15:54.038Z,48.57
2022-12-01T15:18:33.289Z,47.30
2022-12-01T15:21:19.878Z,49.10
2022-12-01T15:24:00.762Z,50.97
2022-12-01T15:26:31.503Z,41.30
2022-12-01T15:29:20.931Z,57.55
2022-12-01T15:31:50.269Z,51.23
2022-12-01T15:34:23.694Z,51.78
2022-12-01T15:36:52.298Z,49.57
2022-12-01T15:39:30.249Z,47.30
2022-12-01T15:41:57.395Z,49.60
2022-12-01T15:44:32.968Z,45.87
2022-12-01T15:47:00.320Z,46.77
2022-12-01T15:49:30.251Z,40.20
2022-12-01T15:52:12.501Z,46.97
2022-12-01T15:54:39.887Z,47.37
2022-12-01T15:57:07.077Z,44.40
2022-12-01T15:59:40.837Z,47.73
2022-12-01T16:02:26.792Z,46.70
2022-12-01T16:05:14.451Z,45.93
2022-12-01T16:08:12.228Z,52.67
2022-12-01T16:10:34.199Z,45.37
2022-12-01T16:13:37.696Z,41.03
2022-12-01T16:16:47.111Z,47.30
2022-12-01T16:19:16.738Z,47.30
2022-12-01T16:21:54.814Z,47.17
2022-12-01T16:24:30.050Z,52.27
2022-12-01T16:27:20.726Z,44.97
2022-12-01T16:29:55.475Z,37.03
2022-12-01T16:32:38.563Z,48.53
2022-12-01T16:35:33.986Z,57.40
2022-12-01T16:38:10.677Z,57.93
2022-12-01T16:40:41.184Z,47.70
2022-12-01T16:43:17.820Z,55.87
2022-12-01T16:45:46.257Z,53.87
2022-12-01T16:48:13.242Z,57.50
2022-12-01T16:50:40.234Z,57.50
2022-12-01T16:53:06.976Z,49.00
2022-12-01T16:55:42.009Z,55.67
2022-12-01T16:58:09.057Z,47.83
2022-12-01T17:00:36.031Z,47.30
2022-12-01T17:03:04.426Z,44.53
2022-12-01T17:05:32.165Z,56.67
2022-12-01T17:07:59.229Z,56.43
2022-12-01T17:10:26.127Z,48.07
2022-12-01T17:12:53.025Z,46.40
2022-12-01T17:15:19.799Z,47.03
2022-12-01T17:17:46.800Z,44.40
2022-12-01T17:20:13.702Z,45.67
2022-12-01T17:22:40.430Z,44.67
2022-12-01T17:25:09.630Z,39.53
2022-12-01T17:27:37.673Z,42.33
2022-12-01T17:30:05.998Z,43.93
2022-12-01T17:32:33.030Z,49.30
2022-12-01T17:35:00.725Z,49.70
2022-12-01T17:37:30.109Z,41.53
2022-12-01T17:39:56.946Z,50.53
2022-12-01T17:42:23.699Z,46.30
2022-12-01T17:44:50.690Z,39.43
2022-12-01T17:47:18.162Z,46.97
2022-12-01T17:49:44.890Z,44.37
2022-12-01T17:52:11.916Z,42.73
2022-12-01T17:54:38.728Z,48.57
2022-12-01T17:57:07.312Z,41.30
2022-12-01T17:59:35.402Z,35.87
2022-12-01T18:02:02.841Z,43.83
2022-12-01T18:04:31.017Z,51.17
2022-12-01T18:06:57.870Z,54.97
2022-12-01T18:09:24.694Z,66.67
2022-12-01T18:11:53.306Z,166.27
2022-12-01T18:14:20.100Z,98.40
2022-12-01T18:16:48.387Z,51.03
2022-12-01T18:19:15.427Z,55.77
2022-12-01T18:21:42.232Z,56.97
2022-12-01T18:24:10.171Z,48.27
2022-12-01T18:26:39.700Z,58.60
2022-12-01T18:29:13.101Z,47.50
2022-12-01T18:31:40.380Z,48.93
2022-12-01T18:34:08.009Z,47.27
2022-12-01T18:36:36.931Z,48.37
2022-12-01T18:39:05.609Z,48.57
2022-12-01T18:41:32.436Z,50.30
2022-12-01T18:43:59.331Z,50.53
2022-12-01T18:46:26.250Z,50.57
2022-12-01T18:49:02.780Z,52.27
2022-12-01T18:51:31.619Z,53.33
2022-12-01T18:54:00.044Z,49.20
2022-12-01T18:56:27.863Z,52.07
2022-12-01T18:59:02.697Z,63.77
2022-12-01T19:01:32.454Z,64.13
2022-12-01T19:04:00.149Z,60.43
2022-12-01T19:06:28.237Z,60.97
2022-12-01T19:09:01.266Z,51.43
2022-12-01T19:11:28.345Z,70.23
2022-12-01T19:13:58.187Z,96.57
2022-12-01T19:16:25.558Z,59.63
2022-12-01T19:18:53.060Z,55.43
2022-12-01T19:21:20.263Z,61.20
2022-12-01T19:23:47.720Z,53.43
2022-12-01T19:26:20.266Z,57.07
2022-12-01T19:28:47.856Z,52.57
2022-12-01T19:31:19.109Z,54.77
2022-12-01T19:33:46.516Z,55.23
2022-12-01T19:36:16.021Z,63.80
2022-12-01T19:38:44.407Z,53.47
2022-12-01T19:41:12.750Z,53.30
2022-12-01T19:43:40.181Z,49.60
2022-12-01T19:46:09.009Z,60.40
2022-12-01T19:48:36.099Z,52.13
2022-12-01T19:51:03.569Z,56.57
2022-12-01T19:53:33.491Z,53.23
2022-12-01T19:56:04.938Z,59.80
2022-12-01T19:58:35.161Z,94.53
2022-12-01T20:01:10.363Z,87.03
2022-12-01T20:03:38.053Z,75.27
2022-12-01T20:06:12.928Z,58.53
2022-12-01T20:08:40.104Z,63.50
2022-12-01T20:11:07.170Z,58.27
2022-12-01T20:13:35.862Z,49.47
2022-12-01T20:16:04.528Z,55.83
2022-12-01T20:18:31.968Z,132.50
2022-12-01T20:21:09.943Z,239.80
2022-12-01T20:23:37.295Z,77.67
2022-12-01T20:26:07.140Z,57.87
2022-12-01T20:28:35.187Z,60.27
2022-12-01T20:31:02.242Z,55.33
2022-12-01T20:33:29.414Z,58.13
2022-12-01T20:35:56.207Z,58.10
2022-12-01T20:38:27.206Z,51.60
2022-12-01T20:40:54.591Z,57.83
2022-12-01T20:43:21.334Z,56.30
2022-12-01T20:45:48.310Z,54.63
2022-12-01T20:48:15.210Z,50.00
2022-12-01T20:50:42.143Z,49.17
2022-12-01T20:53:09.575Z,47.20
2022-12-01T20:55:37.689Z,59.30
2022-12-01T20:58:08.528Z,55.77
2022-12-01T21:00:40.377Z,55.70
2022-12-01T21:03:07.163Z,52.00
2022-12-01T21:05:34.535Z,63.53
2022-12-01T21:08:01.865Z,60.67
2022-12-01T21:10:29.023Z,53.20
2022-12-01T21:13:18.771Z,54.67
2022-12-01T21:16:00.059Z,56.57
2022-12-01T21:18:48.171Z,55.93
2022-12-01T21:21:21.169Z,50.97
2022-12-01T21:24:13.566Z,55.43
2022-12-01T21:26:42.875Z,54.67
2022-12-01T21:29:44.378Z,58.77
2022-12-01T21:32:14.010Z,63.10
2022-12-01T21:34:41.422Z,61.03
2022-12-01T21:37:24.641Z,64.13
2022-12-01T21:39:52.875Z,63.50
2022-12-01T21:42:31.183Z,61.23
2022-12-01T21:44:57.993Z,57.60
2022-12-01T21:47:27.109Z,53.80
2022-12-01T21:49:57.158Z,62.67
2022-12-01T21:52:30.196Z,59.43
2022-12-01T21:55:23.280Z,61.33
2022-12-01T21:57:51.924Z,57.30
2022-12-01T22:00:26.628Z,55.67
2022-12-01T22:03:16.283Z,66.57
2022-12-01T22:06:07.204Z,60.60
2022-12-01T22:08:37.062Z,63.00
2022-12-01T22:11:18.684Z,65.93
2022-12-01T22:13:53.023Z,66.97
2022-12-01T22:16:25.331Z,64.60
2022-12-01T22:18:54.886Z,71.33
2022-12-01T22:21:35.668Z,63.27
2022-12-01T22:24:08.594Z,60.37
2022-12-01T22:26:41.291Z,65.67
2022-12-01T22:29:31.069Z,66.27
2022-12-01T22:32:23.654Z,65.20
2022-12-01T22:34:56.286Z,63.23
2022-12-01T22:37:26.963Z,63.33
2022-12-01T22:39:57.141Z,68.03
2022-12-01T22:42:34.922Z,69.43
2022-12-01T22:45:22.035Z,62.20
2022-12-01T22:47:48.829Z,73.13
2022-12-01T22:50:31.267Z,72.53
2022-12-01T22:53:12.385Z,72.73
2022-12-01T22:55:40.051Z,66.57
2022-12-01T22:58:21.488Z,74.60
2022-12-01T23:00:48.283Z,70.73
2022-12-01T23:03:15.753Z,70.00
2022-12-01T23:05:42.608Z,65.27
2022-12-01T23:08:10.841Z,73.40
2022-12-01T23:10:39.260Z,71.20
2022-12-01T23:13:24.766Z,70.47
2022-12-01T23:15:53.668Z,74.00
2022-12-01T23:18:28.460Z,65.13
2022-12-01T23:20:57.101Z,74.60
2022-12-01T23:23:34.773Z,72.90
2022-12-01T23:26:03.683Z,74.90
2022-12-01T23:28:31.018Z,78.30
2022-12-01T23:30:59.384Z,69.93
2022-12-01T23:33:29.111Z,79.37
2022-12-01T23:36:27.751Z,79.47
2022-12-01T23:39:01.359Z,74.83
2022-12-01T23:41:38.770Z,70.27
2022-12-01T23:44:28.944Z,73.10
2022-12-01T23:46:57.750Z,73.53
2022-12-01T23:49:29.398Z,81.53
2022-12-01T23:51:59.100Z,87.53
2022-12-01T23:54:33.954Z,75.47
2022-12-01T23:57:11.835Z,102.73
2022-12-01T23:59:38.731Z,92.73
